createdAt,value
2019-04-06T00:00:01.786Z,142.60
2019-04-06T00:01:01.752Z,156.30
2019-04-06T00:02:01.726Z,159.70
2019-04-06T00:03:01.695Z,155.40
2019-04-06T00:04:01.664Z,154.40
2019-04-06T00:05:01.632Z,166.70
2019-04-06T00:06:01.607Z,146.30
2019-04-06T00:07:01.578Z,157.40
2019-04-06T00:08:01.542Z,173.80
2019-04-06T00:09:01.512Z,177.10
2019-04-06T00:10:01.486Z,168.70
2019-04-06T00:11:01.496Z,169.00
2019-04-06T00:12:01.421Z,158.60
2019-04-06T00:13:01.391Z,160.00
2019-04-06T00:14:01.360Z,153.60
2019-04-06T00:15:01.329Z,157.50
2019-04-06T00:16:01.300Z,147.20
2019-04-06T00:17:01.268Z,144.10
2019-04-06T00:18:01.241Z,147.90
2019-04-06T00:19:01.207Z,175.70
2019-04-06T00:20:01.183Z,164.70
2019-04-06T00:21:01.145Z,146.90
2019-04-06T00:22:01.114Z,148.30
2019-04-06T00:23:01.086Z,146.10
2019-04-06T00:24:01.054Z,145.40
2019-04-06T00:25:01.024Z,164.50
2019-04-06T00:26:01.045Z,158.40
2019-04-06T00:27:00.968Z,177.70
2019-04-06T00:28:00.933Z,169.40
2019-04-06T00:29:00.903Z,233.80
2019-04-06T00:30:00.882Z,204.40
2019-04-06T00:31:00.842Z,154.50
2019-04-06T00:32:00.812Z,144.00
2019-04-06T00:33:00.780Z,145.20
2019-04-06T00:34:00.750Z,151.20
2019-04-06T00:35:00.721Z,145.30
2019-04-06T00:36:00.690Z,136.70
2019-04-06T00:37:00.677Z,168.00
2019-04-06T00:38:00.630Z,171.90
2019-04-06T00:39:00.598Z,154.50
2019-04-06T00:40:00.568Z,171.30
2019-04-06T00:41:00.536Z,138.90
2019-04-06T00:42:00.576Z,137.00
2019-04-06T00:43:00.477Z,128.60
2019-04-06T00:44:00.445Z,127.90
2019-04-06T00:45:00.414Z,126.60
2019-04-06T00:46:00.385Z,153.10
2019-04-06T00:47:00.354Z,137.70
2019-04-06T00:48:00.324Z,140.70
2019-04-06T00:49:00.292Z,140.20
2019-04-06T00:50:00.264Z,148.70
2019-04-06T00:51:00.232Z,149.90
2019-04-06T00:52:00.214Z,148.00
2019-04-06T00:53:00.170Z,138.10
2019-04-06T00:54:00.139Z,157.00
2019-04-06T00:55:00.111Z,145.50
2019-04-06T00:56:00.078Z,142.90
2019-04-06T00:57:00.048Z,151.40
2019-04-06T00:58:00.111Z,135.70
2019-04-06T00:58:59.985Z,120.30
2019-04-06T00:59:59.954Z,153.40
2019-04-06T01:00:59.924Z,170.50
2019-04-06T01:01:59.927Z,165.60
2019-04-06T01:02:59.863Z,160.70
2019-04-06T01:03:59.832Z,164.00
2019-04-06T01:04:59.804Z,131.40
2019-04-06T01:05:59.771Z,130.50
2019-04-06T01:06:59.743Z,140.50
2019-04-06T01:07:59.710Z,135.60
2019-04-06T01:08:59.678Z,126.30
2019-04-06T01:09:59.648Z,124.10
2019-04-06T01:10:59.619Z,128.10
2019-04-06T01:11:59.587Z,130.60
2019-04-06T01:12:59.554Z,130.20
2019-04-06T01:13:59.582Z,154.10
2019-04-06T01:14:59.493Z,138.60
2019-04-06T01:15:59.463Z,141.00
2019-04-06T01:16:59.432Z,136.10
2019-04-06T01:17:59.401Z,128.50
2019-04-06T01:18:59.369Z,138.90
2019-04-06T01:19:59.341Z,129.30
2019-04-06T01:20:59.308Z,121.70
2019-04-06T01:21:59.277Z,128.10
2019-04-06T01:22:59.246Z,135.50
2019-04-06T01:23:59.218Z,139.90
2019-04-06T01:24:59.184Z,143.00
2019-04-06T01:26:07.174Z,154.10
2019-04-06T01:26:59.123Z,149.20
2019-04-06T01:27:59.094Z,140.00
2019-04-06T01:28:59.059Z,128.90
2019-04-06T01:29:59.030Z,133.10
2019-04-06T01:30:59.001Z,126.50
2019-04-06T01:31:58.972Z,141.30
2019-04-06T01:32:58.936Z,139.60
2019-04-06T01:33:59.389Z,149.10
2019-04-06T01:34:58.876Z,149.90
2019-04-06T01:35:58.940Z,142.40
2019-04-06T01:36:58.813Z,142.80
2019-04-06T01:37:58.783Z,129.80
2019-04-06T01:38:58.751Z,138.10
2019-04-06T01:39:58.722Z,130.70
2019-04-06T01:40:58.689Z,129.40
2019-04-06T01:41:58.657Z,135.00
2019-04-06T01:42:58.628Z,121.00
2019-04-06T01:43:58.598Z,129.10
2019-04-06T01:44:58.566Z,129.00
2019-04-06T01:45:58.536Z,141.30
2019-04-06T01:46:58.505Z,145.50
2019-04-06T01:47:58.472Z,153.70
2019-04-06T01:48:58.461Z,145.00
2019-04-06T01:49:58.412Z,130.10
2019-04-06T01:50:58.379Z,135.20
2019-04-06T01:51:58.349Z,142.20
2019-04-06T01:52:58.317Z,140.10
2019-04-06T01:53:58.287Z,133.80
2019-04-06T01:54:59.206Z,148.40
2019-04-06T01:55:58.225Z,160.30
2019-04-06T01:56:58.192Z,172.20
2019-04-06T01:57:58.162Z,154.00
2019-04-06T01:58:58.132Z,162.60
2019-04-06T01:59:58.101Z,159.40
2019-04-06T02:00:58.138Z,161.90
2019-04-06T02:01:58.044Z,156.10
2019-04-06T02:02:58.007Z,190.00
2019-04-06T02:03:58.069Z,156.30
2019-04-06T02:04:57.946Z,154.80
2019-04-06T02:05:57.955Z,159.10
2019-04-06T02:06:57.881Z,157.80
2019-04-06T02:07:57.855Z,164.90
2019-04-06T02:08:57.821Z,163.90
2019-04-06T02:09:57.790Z,160.30
2019-04-06T02:10:57.759Z,150.40
2019-04-06T02:11:57.728Z,148.90
2019-04-06T02:12:57.698Z,150.30
2019-04-06T02:13:57.667Z,147.20
2019-04-06T02:14:57.636Z,147.60
2019-04-06T02:15:57.606Z,146.80
2019-04-06T02:16:57.659Z,162.60
2019-04-06T02:17:57.542Z,174.10
2019-04-06T02:18:57.525Z,156.10
2019-04-06T02:19:57.479Z,161.70
2019-04-06T02:20:57.447Z,142.60
2019-04-06T02:21:57.422Z,159.70
2019-04-06T02:22:57.386Z,157.00
2019-04-06T02:23:57.358Z,171.90
2019-04-06T02:24:57.331Z,169.60
2019-04-06T02:25:57.293Z,166.20
2019-04-06T02:26:57.364Z,147.40
2019-04-06T02:27:57.231Z,161.80
2019-04-06T02:28:57.201Z,154.90
2019-04-06T02:29:57.169Z,158.80
2019-04-06T02:30:57.138Z,155.90
2019-04-06T02:31:57.110Z,170.40
2019-04-06T02:32:57.075Z,186.60
2019-04-06T02:33:57.097Z,163.90
2019-04-06T02:34:57.013Z,165.00
2019-04-06T02:35:56.989Z,152.80
2019-04-06T02:36:56.954Z,156.20
2019-04-06T02:37:56.919Z,174.40
2019-04-06T02:38:56.887Z,168.50
2019-04-06T02:39:56.863Z,162.80
2019-04-06T02:40:56.831Z,170.00
2019-04-06T02:41:56.816Z,174.00
2019-04-06T02:42:56.768Z,171.30
2019-04-06T02:43:56.732Z,179.20
2019-04-06T02:44:56.700Z,168.60
2019-04-06T02:45:56.670Z,157.40
2019-04-06T02:46:56.638Z,160.70
2019-04-06T02:47:56.619Z,165.80
2019-04-06T02:48:56.576Z,166.20
2019-04-06T02:49:56.722Z,170.90
2019-04-06T02:50:56.514Z,176.80
2019-04-06T02:51:56.483Z,170.80
2019-04-06T02:52:56.450Z,164.40
2019-04-06T02:53:56.510Z,158.80
2019-04-06T02:54:56.399Z,174.40
2019-04-06T02:55:56.358Z,160.90
2019-04-06T02:56:56.324Z,169.50
2019-04-06T02:57:56.309Z,167.20
2019-04-06T02:58:56.263Z,162.10
2019-04-06T02:59:56.231Z,172.70
2019-04-06T03:00:56.398Z,157.20
2019-04-06T03:01:56.194Z,170.20
2019-04-06T03:02:56.137Z,156.90
2019-04-06T03:03:56.105Z,156.80
2019-04-06T03:04:56.074Z,156.30
2019-04-06T03:05:56.045Z,174.20
2019-04-06T03:06:56.011Z,171.00
2019-04-06T03:07:55.984Z,164.40
2019-04-06T03:08:55.950Z,152.90
2019-04-06T03:09:55.917Z,161.60
2019-04-06T03:10:55.886Z,156.70
2019-04-06T03:11:55.858Z,157.20
2019-04-06T03:12:55.822Z,169.60
2019-04-06T03:13:55.795Z,171.10
2019-04-06T03:14:55.960Z,157.10
2019-04-06T03:15:55.746Z,171.40
2019-04-06T03:16:55.698Z,160.10
2019-04-06T03:17:55.667Z,165.30
2019-04-06T03:18:55.636Z,168.50
2019-04-06T03:19:55.610Z,169.60
2019-04-06T03:20:55.574Z,157.10
2019-04-06T03:21:55.611Z,129.00
2019-04-06T03:22:55.512Z,145.10
2019-04-06T03:23:55.483Z,158.60
2019-04-06T03:24:55.575Z,154.20
2019-04-06T03:25:55.423Z,156.20
2019-04-06T03:27:01.788Z,167.00
2019-04-06T03:27:55.354Z,167.70
2019-04-06T03:28:55.337Z,161.90
2019-04-06T03:29:58.255Z,154.80
2019-04-06T03:30:55.500Z,172.40
2019-04-06T03:31:55.301Z,186.50
2019-04-06T03:32:55.195Z,173.70
2019-04-06T03:33:55.260Z,164.20
2019-04-06T03:34:55.130Z,170.10
2019-04-06T03:35:55.101Z,204.60
2019-04-06T03:36:55.092Z,191.70
2019-04-06T03:37:55.041Z,183.00
2019-04-06T03:38:55.022Z,179.90
2019-04-06T03:39:54.975Z,188.10
2019-04-06T03:40:54.943Z,187.20
2019-04-06T03:41:54.912Z,178.40
2019-04-06T03:42:54.880Z,165.90
2019-04-06T03:43:54.850Z,171.40
2019-04-06T03:44:54.815Z,180.20
2019-04-06T03:45:54.785Z,229.90
2019-04-06T03:46:54.754Z,166.40
2019-04-06T03:47:54.773Z,158.60
2019-04-06T03:48:54.699Z,149.50
2019-04-06T03:49:54.658Z,142.50
2019-04-06T03:50:54.631Z,150.50
2019-04-06T03:51:54.600Z,153.40
2019-04-06T03:52:54.750Z,173.00
2019-04-06T03:53:54.534Z,168.80
2019-04-06T03:54:54.502Z,164.00
2019-04-06T03:55:54.470Z,177.50
2019-04-06T03:56:54.438Z,157.70
2019-04-06T03:57:54.415Z,169.10
2019-04-06T03:58:54.377Z,145.10
2019-04-06T03:59:54.347Z,179.00
2019-04-06T04:00:54.471Z,152.80
2019-04-06T04:01:54.280Z,175.00
2019-04-06T04:02:54.248Z,159.90
2019-04-06T04:03:54.590Z,164.60
2019-04-06T04:04:54.186Z,162.00
2019-04-06T04:05:54.154Z,153.50
2019-04-06T04:06:54.124Z,156.60
2019-04-06T04:07:54.094Z,160.80
2019-04-06T04:08:54.060Z,155.50
2019-04-06T04:09:54.035Z,153.30
2019-04-06T04:10:54.017Z,155.30
2019-04-06T04:11:53.972Z,179.80
2019-04-06T04:12:53.941Z,168.20
2019-04-06T04:13:53.904Z,199.20
2019-04-06T04:14:53.891Z,157.50
2019-04-06T04:15:56.757Z,161.30
2019-04-06T04:16:54.050Z,151.30
2019-04-06T04:17:53.777Z,146.80
2019-04-06T04:18:53.742Z,154.50
2019-04-06T04:19:53.713Z,157.70
2019-04-06T04:20:53.680Z,147.10
2019-04-06T04:21:53.722Z,169.00
2019-04-06T04:22:53.618Z,184.10
2019-04-06T04:23:53.591Z,179.80
2019-04-06T04:24:53.691Z,200.80
2019-04-06T04:25:53.521Z,212.80
2019-04-06T04:26:53.492Z,191.10
2019-04-06T04:27:53.458Z,171.40
2019-04-06T04:28:53.675Z,178.80
2019-04-06T04:29:53.514Z,190.10
2019-04-06T04:30:53.383Z,195.60
2019-04-06T04:31:53.332Z,193.50
2019-04-06T04:32:53.301Z,204.10
2019-04-06T04:33:53.271Z,168.90
2019-04-06T04:34:53.238Z,189.50
2019-04-06T04:35:53.214Z,175.90
2019-04-06T04:36:53.304Z,175.60
2019-04-06T04:37:53.143Z,160.60
2019-04-06T04:38:53.112Z,202.20
2019-04-06T04:39:53.363Z,201.80
2019-04-06T04:40:53.294Z,199.00
2019-04-06T04:41:53.018Z,192.20
2019-04-06T04:42:52.988Z,182.70
2019-04-06T04:43:52.955Z,161.40
2019-04-06T04:44:52.926Z,186.30
2019-04-06T04:45:52.890Z,169.50
2019-04-06T04:46:52.869Z,188.20
2019-04-06T04:47:52.827Z,171.50
2019-04-06T04:48:52.806Z,161.10
2019-04-06T04:49:52.764Z,167.20
2019-04-06T04:50:52.731Z,147.20
2019-04-06T04:51:52.702Z,171.20
2019-04-06T04:52:52.667Z,170.40
2019-04-06T04:53:52.759Z,183.70
2019-04-06T04:54:52.607Z,200.40
2019-04-06T04:55:52.575Z,148.60
2019-04-06T04:56:52.727Z,155.10
2019-04-06T04:57:52.510Z,189.60
2019-04-06T04:58:52.482Z,170.80
2019-04-06T04:59:52.450Z,196.40
2019-04-06T05:00:52.416Z,156.80
2019-04-06T05:01:52.742Z,148.00
2019-04-06T05:02:52.354Z,185.30
2019-04-06T05:03:52.325Z,194.40
2019-04-06T05:04:52.293Z,189.70
2019-04-06T05:05:52.259Z,183.30
2019-04-06T05:06:52.230Z,151.80
2019-04-06T05:07:52.198Z,151.40
2019-04-06T05:08:52.167Z,155.50
2019-04-06T05:09:52.283Z,153.20
2019-04-06T05:10:52.107Z,160.20
2019-04-06T05:11:52.079Z,147.60
2019-04-06T05:12:52.194Z,140.50
2019-04-06T05:13:52.012Z,152.90
2019-04-06T05:14:52.113Z,140.50
2019-04-06T05:15:51.951Z,145.30
2019-04-06T05:16:51.926Z,157.30
2019-04-06T05:17:51.895Z,153.20
2019-04-06T05:18:51.858Z,154.30
2019-04-06T05:19:51.828Z,157.10
2019-04-06T05:20:51.797Z,147.10
2019-04-06T05:21:51.766Z,153.80
2019-04-06T05:22:51.737Z,167.20
2019-04-06T05:23:51.847Z,147.50
2019-04-06T05:24:51.817Z,150.60
2019-04-06T05:25:51.650Z,162.70
2019-04-06T05:26:51.660Z,138.10
2019-04-06T05:27:52.969Z,148.90
2019-04-06T05:28:51.557Z,164.00
2019-04-06T05:29:51.524Z,139.70
2019-04-06T05:30:51.496Z,139.20
2019-04-06T05:31:51.462Z,156.80
2019-04-06T05:32:51.549Z,140.00
2019-04-06T05:33:51.456Z,142.70
2019-04-06T05:34:51.373Z,146.20
2019-04-06T05:35:51.345Z,145.10
2019-04-06T05:36:51.439Z,137.90
2019-04-06T05:37:51.283Z,129.10
2019-04-06T05:38:51.256Z,129.10
2019-04-06T05:39:51.227Z,152.20
2019-04-06T05:40:51.195Z,142.50
2019-04-06T05:41:51.219Z,158.90
2019-04-06T05:42:51.135Z,152.20
2019-04-06T05:43:51.111Z,162.50
2019-04-06T05:44:51.077Z,165.20
2019-04-06T05:45:51.048Z,153.50
2019-04-06T05:46:51.020Z,147.40
2019-04-06T05:47:50.989Z,136.10
2019-04-06T05:48:50.960Z,148.30
2019-04-06T05:49:50.932Z,148.20
2019-04-06T05:50:50.903Z,141.20
2019-04-06T05:51:50.880Z,131.80
2019-04-06T05:52:50.845Z,145.90
2019-04-06T05:53:50.951Z,145.50
2019-04-06T05:54:50.911Z,144.70
2019-04-06T05:55:50.759Z,134.90
2019-04-06T05:56:50.730Z,137.40
2019-04-06T05:58:01.965Z,119.60
2019-04-06T05:58:50.841Z,116.60
2019-04-06T05:59:50.650Z,122.60
2019-04-06T06:00:50.617Z,113.70
2019-04-06T06:01:50.591Z,110.60
2019-04-06T06:02:50.703Z,110.30
2019-04-06T06:03:50.538Z,121.00
2019-04-06T06:04:50.668Z,110.40
2019-04-06T06:05:50.479Z,103.70
2019-04-06T06:06:50.454Z,103.90
2019-04-06T06:07:50.423Z,104.40
2019-04-06T06:08:50.397Z,113.40
2019-04-06T06:09:50.367Z,100.60
2019-04-06T06:10:50.339Z,99.60
2019-04-06T06:11:50.352Z,100.20
2019-04-06T06:12:50.283Z,93.60
2019-04-06T06:13:50.259Z,86.50
2019-04-06T06:14:50.234Z,86.20
2019-04-06T06:15:50.204Z,95.20
2019-04-06T06:16:50.202Z,97.90
2019-04-06T06:17:50.151Z,101.40
2019-04-06T06:18:50.123Z,100.40
2019-04-06T06:19:50.098Z,103.30
2019-04-06T06:20:50.070Z,104.20
2019-04-06T06:21:50.043Z,99.30
2019-04-06T06:22:50.088Z,107.30
2019-04-06T06:23:49.991Z,104.60
2019-04-06T06:24:49.964Z,92.70
2019-04-06T06:25:49.939Z,95.00
2019-04-06T06:26:49.914Z,94.90
2019-04-06T06:27:49.891Z,92.20
2019-04-06T06:28:49.861Z,89.70
2019-04-06T06:29:49.871Z,91.70
2019-04-06T06:30:49.809Z,94.90
2019-04-06T06:31:49.784Z,89.20
2019-04-06T06:32:49.757Z,88.70
2019-04-06T06:33:49.931Z,82.80
2019-04-06T06:34:49.705Z,88.20
2019-04-06T06:35:49.693Z,92.80
2019-04-06T06:36:49.834Z,88.00
2019-04-06T06:37:49.631Z,85.90
2019-04-06T06:38:49.606Z,85.70
2019-04-06T06:39:49.584Z,86.50
2019-04-06T06:40:49.559Z,84.00
2019-04-06T06:41:49.728Z,88.00
2019-04-06T06:42:49.508Z,89.30
2019-04-06T06:43:49.482Z,88.70
2019-04-06T06:44:49.462Z,84.80
2019-04-06T06:45:49.433Z,88.20
2019-04-06T06:46:49.408Z,89.00
2019-04-06T06:47:49.384Z,86.70
2019-04-06T06:48:49.430Z,89.80
2019-04-06T06:49:49.337Z,91.20
2019-04-06T06:50:49.313Z,81.10
2019-04-06T06:51:49.482Z,79.60
2019-04-06T06:52:49.264Z,83.80
2019-04-06T06:53:49.240Z,78.50
2019-04-06T06:54:49.219Z,78.20
2019-04-06T06:55:49.191Z,78.40
2019-04-06T06:56:49.176Z,76.90
2019-04-06T06:57:49.143Z,69.60
2019-04-06T06:58:49.162Z,70.50
2019-04-06T06:59:49.097Z,71.80
2019-04-06T07:00:49.075Z,71.20
2019-04-06T07:01:49.182Z,67.60
2019-04-06T07:02:49.027Z,67.30
2019-04-06T07:03:49.007Z,69.90
2019-04-06T07:04:48.983Z,68.50
2019-04-06T07:05:48.961Z,67.30
2019-04-06T07:06:48.939Z,67.60
2019-04-06T07:07:48.920Z,69.50
2019-04-06T07:08:49.040Z,68.20
2019-04-06T07:09:48.891Z,72.60
2019-04-06T07:10:48.856Z,65.80
2019-04-06T07:11:48.828Z,67.40
2019-04-06T07:12:48.812Z,66.90
2019-04-06T07:13:48.878Z,64.70
2019-04-06T07:14:48.768Z,64.90
2019-04-06T07:15:48.740Z,61.50
2019-04-06T07:16:48.800Z,61.20
2019-04-06T07:17:48.702Z,62.90
2019-04-06T07:18:48.675Z,60.70
2019-04-06T07:19:48.655Z,59.60
2019-04-06T07:20:48.634Z,62.20
2019-04-06T07:21:48.614Z,59.80
2019-04-06T07:22:48.733Z,62.50
2019-04-06T07:23:48.574Z,62.50
2019-04-06T07:24:48.551Z,63.50
2019-04-06T07:25:57.667Z,61.90
2019-04-06T07:26:48.512Z,63.30
2019-04-06T07:27:48.489Z,71.10
2019-04-06T07:28:48.470Z,62.90
2019-04-06T07:29:48.451Z,63.60
2019-04-06T07:30:48.432Z,76.70
2019-04-06T07:31:48.411Z,64.60
2019-04-06T07:32:48.389Z,57.60
2019-04-06T07:33:48.369Z,56.80
2019-04-06T07:34:48.350Z,54.60
2019-04-06T07:35:48.330Z,58.20
2019-04-06T07:36:48.310Z,58.10
2019-04-06T07:37:48.291Z,57.30
2019-04-06T07:38:48.271Z,58.40
2019-04-06T07:39:48.253Z,53.30
2019-04-06T07:40:48.230Z,51.50
2019-04-06T07:41:48.396Z,52.20
2019-04-06T07:42:48.193Z,52.90
2019-04-06T07:43:48.216Z,56.40
2019-04-06T07:44:48.153Z,51.10
2019-04-06T07:45:48.136Z,50.60
2019-04-06T07:46:48.326Z,51.70
2019-04-06T07:47:48.099Z,52.30
2019-04-06T07:48:48.078Z,51.50
2019-04-06T07:49:48.061Z,52.70
2019-04-06T07:50:48.043Z,56.20
2019-04-06T07:51:48.076Z,50.40
2019-04-06T07:52:48.004Z,49.70
2019-04-06T07:53:48.191Z,50.50
2019-04-06T07:54:47.968Z,49.90
2019-04-06T07:55:47.950Z,52.00
2019-04-06T07:56:47.932Z,53.80
2019-04-06T07:57:47.913Z,47.90
2019-04-06T07:58:49.963Z,47.90
2019-04-06T07:59:47.915Z,43.90
2019-04-06T08:00:48.165Z,43.30
2019-04-06T08:01:48.712Z,50.80
2019-04-06T08:02:47.824Z,46.20
2019-04-06T08:03:48.052Z,42.90
2019-04-06T08:04:47.789Z,43.40
2019-04-06T08:05:47.898Z,43.80
2019-04-06T08:06:47.752Z,44.40
2019-04-06T08:07:47.735Z,49.20
2019-04-06T08:08:47.834Z,45.60
2019-04-06T08:09:47.698Z,46.60
2019-04-06T08:10:47.678Z,43.30
2019-04-06T08:11:47.803Z,46.20
2019-04-06T08:12:47.652Z,48.10
2019-04-06T08:13:47.621Z,45.90
2019-04-06T08:14:47.603Z,39.30
2019-04-06T08:15:47.582Z,43.10
2019-04-06T08:16:47.642Z,44.20
2019-04-06T08:17:47.543Z,43.30
2019-04-06T08:18:47.736Z,42.00
2019-04-06T08:19:47.504Z,44.20
2019-04-06T08:20:47.484Z,45.90
2019-04-06T08:21:47.731Z,41.40
2019-04-06T08:22:47.448Z,42.00
2019-04-06T08:23:47.429Z,41.40
2019-04-06T08:24:47.409Z,45.40
2019-04-06T08:25:47.447Z,46.20
2019-04-06T08:26:47.372Z,43.60
2019-04-06T08:27:47.355Z,43.30
2019-04-06T08:28:59.146Z,44.00
2019-04-06T08:29:47.319Z,47.40
2019-04-06T08:30:47.303Z,40.70
2019-04-06T08:31:47.289Z,40.50
2019-04-06T08:32:47.549Z,44.10
2019-04-06T08:33:47.253Z,44.10
2019-04-06T08:34:47.234Z,41.90
2019-04-06T08:35:47.217Z,43.00
2019-04-06T08:36:47.200Z,45.10
2019-04-06T08:37:47.282Z,40.50
2019-04-06T08:38:47.173Z,39.30
2019-04-06T08:39:47.184Z,41.20
2019-04-06T08:40:47.133Z,42.20
2019-04-06T08:41:47.115Z,42.70
2019-04-06T08:42:47.105Z,38.20
2019-04-06T08:43:47.084Z,48.80
2019-04-06T08:44:47.066Z,44.40
2019-04-06T08:45:47.108Z,39.50
2019-04-06T08:46:47.036Z,38.70
2019-04-06T08:47:47.061Z,41.50
2019-04-06T08:48:47.004Z,40.00
2019-04-06T08:49:46.994Z,40.90
2019-04-06T08:50:46.971Z,40.40
2019-04-06T08:51:46.954Z,39.40
2019-04-06T08:52:46.936Z,38.30
2019-04-06T08:53:46.920Z,41.90
2019-04-06T08:54:46.904Z,40.70
2019-04-06T08:55:46.890Z,39.10
2019-04-06T08:56:46.871Z,40.80
2019-04-06T08:57:46.857Z,41.90
2019-04-06T08:58:46.863Z,40.60
2019-04-06T08:59:46.949Z,39.50
2019-04-06T09:00:46.817Z,38.40
2019-04-06T09:01:46.789Z,40.50
2019-04-06T09:02:46.776Z,43.70
2019-04-06T09:03:46.795Z,48.10
2019-04-06T09:04:46.749Z,43.00
2019-04-06T09:05:46.858Z,41.00
2019-04-06T09:06:46.712Z,42.50
2019-04-06T09:07:46.937Z,44.40
2019-04-06T09:08:46.679Z,40.70
2019-04-06T09:09:46.663Z,46.20
2019-04-06T09:10:46.648Z,39.60
2019-04-06T09:11:46.631Z,37.00
2019-04-06T09:12:46.616Z,36.40
2019-04-06T09:13:46.600Z,37.20
2019-04-06T09:14:46.586Z,38.70
2019-04-06T09:15:46.569Z,34.30
2019-04-06T09:16:46.723Z,37.30
2019-04-06T09:17:46.537Z,42.90
2019-04-06T09:18:48.687Z,46.00
2019-04-06T09:19:46.556Z,119.50
2019-04-06T09:20:46.489Z,54.60
2019-04-06T09:21:46.498Z,50.90
2019-04-06T09:22:46.462Z,39.00
2019-04-06T09:23:46.448Z,37.20
2019-04-06T09:24:46.429Z,36.90
2019-04-06T09:25:46.415Z,35.40
2019-04-06T09:26:48.081Z,35.70
2019-04-06T09:27:46.429Z,38.10
2019-04-06T09:28:46.369Z,36.00
2019-04-06T09:29:46.426Z,34.40
2019-04-06T09:30:46.353Z,36.30
2019-04-06T09:31:46.324Z,35.00
2019-04-06T09:32:46.308Z,36.40
2019-04-06T09:33:46.574Z,38.50
2019-04-06T09:34:46.277Z,37.80
2019-04-06T09:35:46.261Z,39.20
2019-04-06T09:36:46.262Z,43.00
2019-04-06T09:37:46.236Z,38.40
2019-04-06T09:38:46.439Z,42.10
2019-04-06T09:39:46.200Z,48.80
2019-04-06T09:40:46.352Z,45.70
2019-04-06T09:41:46.168Z,39.00
2019-04-06T09:42:46.383Z,33.90
2019-04-06T09:43:46.138Z,40.60
2019-04-06T09:44:46.119Z,34.80
2019-04-06T09:45:46.209Z,33.30
2019-04-06T09:46:46.090Z,32.80
2019-04-06T09:47:46.074Z,33.30
2019-04-06T09:48:46.058Z,33.20
2019-04-06T09:49:46.052Z,32.60
2019-04-06T09:50:46.213Z,35.10
2019-04-06T09:51:46.014Z,33.10
2019-04-06T09:52:45.994Z,33.40
2019-04-06T09:53:46.049Z,35.00
2019-04-06T09:54:45.964Z,34.80
2019-04-06T09:55:46.134Z,31.90
2019-04-06T09:56:45.931Z,32.50
2019-04-06T09:57:45.917Z,34.60
2019-04-06T09:58:45.903Z,32.80
2019-04-06T09:59:48.219Z,33.10
2019-04-06T10:00:45.878Z,34.80
2019-04-06T10:01:46.000Z,35.90
2019-04-06T10:02:45.838Z,37.20
2019-04-06T10:03:45.823Z,33.90
2019-04-06T10:04:45.808Z,36.20
2019-04-06T10:05:45.794Z,31.90
2019-04-06T10:06:45.776Z,31.70
2019-04-06T10:07:45.763Z,33.40
2019-04-06T10:08:45.745Z,32.80
2019-04-06T10:09:45.730Z,31.70
2019-04-06T10:10:45.785Z,31.20
2019-04-06T10:11:45.720Z,30.40
2019-04-06T10:12:45.682Z,32.10
2019-04-06T10:13:45.669Z,35.00
2019-04-06T10:14:45.652Z,31.70
2019-04-06T10:15:45.770Z,35.70
2019-04-06T10:16:45.715Z,37.80
2019-04-06T10:17:45.604Z,31.20
2019-04-06T10:18:45.777Z,31.40
2019-04-06T10:19:45.574Z,32.00
2019-04-06T10:20:45.554Z,31.40
2019-04-06T10:21:45.541Z,28.40
2019-04-06T10:22:45.525Z,28.10
2019-04-06T10:23:45.509Z,28.90
2019-04-06T10:24:45.494Z,30.20
2019-04-06T10:25:45.484Z,29.80
2019-04-06T10:26:45.461Z,33.90
2019-04-06T10:27:45.706Z,41.10
2019-04-06T10:28:45.431Z,32.90
2019-04-06T10:29:48.934Z,27.60
2019-04-06T10:30:45.399Z,27.50
2019-04-06T10:31:45.384Z,30.10
2019-04-06T10:32:45.372Z,33.30
2019-04-06T10:33:45.353Z,27.80
2019-04-06T10:34:45.337Z,33.10
2019-04-06T10:35:45.322Z,37.10
2019-04-06T10:36:45.305Z,48.00
2019-04-06T10:37:45.289Z,29.40
2019-04-06T10:38:45.274Z,30.50
2019-04-06T10:39:45.260Z,26.20
2019-04-06T10:40:45.241Z,25.40
2019-04-06T10:41:45.226Z,25.50
2019-04-06T10:42:45.430Z,26.80
2019-04-06T10:43:45.195Z,25.30
2019-04-06T10:44:45.407Z,25.20
2019-04-06T10:45:45.370Z,26.00
2019-04-06T10:46:45.212Z,24.40
2019-04-06T10:47:45.139Z,24.60
2019-04-06T10:48:45.178Z,26.30
2019-04-06T10:49:45.106Z,26.70
2019-04-06T10:50:45.089Z,28.90
2019-04-06T10:51:45.073Z,27.80
2019-04-06T10:52:45.071Z,30.10
2019-04-06T10:53:45.127Z,27.30
2019-04-06T10:54:45.029Z,28.90
2019-04-06T10:55:45.017Z,26.60
2019-04-06T10:56:44.997Z,25.50
2019-04-06T10:57:44.983Z,25.90
2019-04-06T10:58:44.969Z,23.80
2019-04-06T10:59:45.110Z,24.70
2019-04-06T11:00:44.937Z,26.10
2019-04-06T11:01:45.263Z,24.20
2019-04-06T11:02:44.910Z,26.80
2019-04-06T11:03:44.896Z,25.70
2019-04-06T11:04:44.879Z,24.40
2019-04-06T11:05:44.866Z,23.80
2019-04-06T11:06:44.848Z,26.10
2019-04-06T11:07:45.089Z,25.80
2019-04-06T11:08:44.818Z,25.30
2019-04-06T11:09:44.802Z,25.20
2019-04-06T11:10:44.786Z,26.00
2019-04-06T11:11:44.769Z,25.70
2019-04-06T11:12:44.754Z,26.90
2019-04-06T11:13:44.994Z,27.40
2019-04-06T11:14:44.722Z,26.60
2019-04-06T11:15:44.710Z,25.70
2019-04-06T11:16:47.352Z,25.90
2019-04-06T11:17:44.675Z,26.60
2019-04-06T11:18:44.659Z,25.60
2019-04-06T11:19:44.695Z,25.80
2019-04-06T11:20:44.809Z,25.50
2019-04-06T11:21:44.612Z,26.80
2019-04-06T11:22:44.641Z,24.40
2019-04-06T11:23:44.579Z,27.80
2019-04-06T11:24:44.562Z,27.00
2019-04-06T11:25:44.547Z,29.00
2019-04-06T11:26:44.531Z,28.80
2019-04-06T11:27:44.515Z,28.50
2019-04-06T11:28:44.500Z,26.50
2019-04-06T11:29:44.484Z,26.30
2019-04-06T11:30:44.471Z,25.70
2019-04-06T11:31:44.833Z,25.60
2019-04-06T11:32:44.436Z,26.50
2019-04-06T11:33:44.421Z,27.50
2019-04-06T11:34:44.406Z,27.00
2019-04-06T11:35:44.443Z,25.30
2019-04-06T11:36:44.381Z,25.10
2019-04-06T11:37:44.454Z,25.90
2019-04-06T11:38:44.342Z,24.70
2019-04-06T11:39:44.327Z,28.00
2019-04-06T11:40:44.311Z,27.90
2019-04-06T11:41:44.396Z,33.20
2019-04-06T11:42:44.277Z,30.20
2019-04-06T11:43:44.264Z,25.50
2019-04-06T11:44:44.247Z,27.40
2019-04-06T11:45:44.232Z,27.10
2019-04-06T11:46:44.441Z,27.20
2019-04-06T11:47:44.433Z,22.90
2019-04-06T11:48:45.744Z,25.70
2019-04-06T11:49:44.174Z,22.40
2019-04-06T11:50:44.154Z,24.00
2019-04-06T11:51:44.137Z,25.20
2019-04-06T11:52:44.119Z,26.20
2019-04-06T11:53:44.489Z,31.90
2019-04-06T11:54:44.090Z,29.80
2019-04-06T11:55:44.949Z,33.00
2019-04-06T11:56:44.057Z,25.70
2019-04-06T11:57:44.040Z,24.50
2019-04-06T11:58:44.026Z,25.40
2019-04-06T11:59:44.011Z,26.90
2019-04-06T12:00:43.994Z,22.50
2019-04-06T12:01:43.977Z,23.30
2019-04-06T12:02:43.962Z,23.60
2019-04-06T12:03:44.103Z,26.20
2019-04-06T12:04:43.929Z,26.80
2019-04-06T12:05:43.914Z,30.10
2019-04-06T12:06:43.900Z,27.10
2019-04-06T12:07:43.885Z,24.90
2019-04-06T12:08:43.907Z,22.90
2019-04-06T12:09:43.851Z,22.70
2019-04-06T12:10:43.838Z,24.40
2019-04-06T12:11:43.951Z,22.60
2019-04-06T12:12:43.805Z,22.70
2019-04-06T12:13:43.787Z,26.60
2019-04-06T12:14:44.093Z,23.30
2019-04-06T12:15:43.758Z,28.00
2019-04-06T12:16:43.741Z,31.70
2019-04-06T12:17:43.727Z,26.80
2019-04-06T12:18:43.805Z,27.70
2019-04-06T12:19:44.012Z,24.30
2019-04-06T12:20:43.810Z,33.90
2019-04-06T12:21:43.830Z,28.80
2019-04-06T12:22:43.686Z,32.20
2019-04-06T12:23:43.725Z,26.90
2019-04-06T12:24:43.717Z,22.00
2019-04-06T12:25:43.603Z,23.80
2019-04-06T12:26:43.587Z,23.00
2019-04-06T12:27:43.570Z,25.60
2019-04-06T12:28:43.555Z,29.10
2019-04-06T12:29:43.543Z,23.30
2019-04-06T12:30:43.524Z,22.20
2019-04-06T12:31:43.509Z,28.30
2019-04-06T12:32:43.493Z,29.70
2019-04-06T12:33:43.477Z,30.70
2019-04-06T12:34:43.679Z,25.90
2019-04-06T12:35:43.446Z,26.00
2019-04-06T12:36:43.842Z,22.40
2019-04-06T12:37:43.416Z,20.20
2019-04-06T12:38:43.759Z,24.10
2019-04-06T12:39:52.748Z,22.20